Terminal Aerodrome Forecast
Issued by NWS Portland, ME

Current Version | Previous Version | Text Only | Print | Product List | Glossary On
Versions: 1 2 3 4 5 6 7 8 9 10 11 12 13 14 15 16 17 18 19 20 21 22
000 FTUS41 KGYX 251222 AAA TAFPWM TAF AMD KPWM 251222Z 2512/2612 02006KT P6SM FEW025 BKN030 FM251800 03010KT P6SM BKN050 FM252300 07004KT P6SM SCT050 FM260100 00000KT P6SM SCT250=

USA.gov is the U.S. government's official web portal to all federal, state and local government web resources and services.